首页
METAR-TAF:

METAR-TAF

机场 :

哈尔滨太平国际机场

哈尔滨, 中华人民共和国

纬度: 45-45N, 经度: 126-46E, 海拔: 143米

当前天气观测

该预报发布于30分钟前的15:00 UTC
风速4节,风向东南
温度 17°C
湿度 77%
气压 1018 hPa
能见度10公里或以上
1500米以下无云,无积雨云

METAR: ZYHB 161500Z 14002MPS CAVOK 17/13 Q1018 NOSIG

时间: 23:30 (15:30 UTC)

预报

该预报发布于6小时和25分钟前的09:05 UTC
预报有效从16日的 12点(UTC)到 17日的 12点(UTC)
风速8节,风向东转东北
能見度: 6000

TAF: ZYHB 160905Z 1612/1712 07004MPS 6000 NSC TX26/1706Z TN14/1621Z

超过4000个机场的气象观测和天气预报(METAR&TAF报告)。

可查询的气象台以黄色和红色小点在地图上表示。

将鼠标移到小点上方,可查看气象台名称。

然后点击查看天气观测和预报。

如需切换地图:点击带黑十字的绿色按钮放大地图;点击带横线的绿色按钮缩小地图;或者点击绿色箭头查看邻近地区的地图。


METAR-TAF: